createdAt,value
2022-09-07T00:01:06.109Z,101303.00
2022-09-07T00:03:32.818Z,101303.00
2022-09-07T00:05:59.567Z,101301.00
2022-09-07T00:08:27.372Z,101300.00
2022-09-07T00:10:56.165Z,101280.00
2022-09-07T00:13:24.324Z,101283.00
2022-09-07T00:15:50.947Z,101288.00
2022-09-07T00:18:17.733Z,101290.00
2022-09-07T00:20:44.319Z,101286.00
2022-09-07T00:23:10.998Z,101283.00
2022-09-07T00:25:39.292Z,101281.00
2022-09-07T00:28:07.893Z,101277.00
2022-09-07T00:30:40.107Z,101281.00
2022-09-07T00:33:06.690Z,101289.00
2022-09-07T00:35:33.141Z,101287.00
2022-09-07T00:37:59.651Z,101289.00
2022-09-07T00:40:26.130Z,101286.00
2022-09-07T00:42:52.823Z,101279.00
2022-09-07T00:45:20.742Z,101276.00
2022-09-07T00:47:55.130Z,101280.00
2022-09-07T00:50:30.016Z,101268.00
2022-09-07T00:53:04.426Z,101270.00
2022-09-07T00:55:32.281Z,101279.00
2022-09-07T00:57:59.236Z,101276.00
2022-09-07T01:00:26.007Z,101267.00
2022-09-07T01:02:55.961Z,101272.00
2022-09-07T01:05:34.918Z,101265.00
2022-09-07T01:08:01.437Z,101261.00
2022-09-07T01:10:33.340Z,101266.00
2022-09-07T01:13:00.269Z,101263.00
2022-09-07T01:15:43.530Z,101253.00
2022-09-07T01:18:31.481Z,101261.00
2022-09-07T01:21:25.655Z,101248.00
2022-09-07T01:24:28.407Z,101249.00
2022-09-07T01:27:18.412Z,101247.00
2022-09-07T01:30:03.571Z,101234.00
2022-09-07T01:32:44.283Z,101240.00
2022-09-07T01:35:20.504Z,101244.00
2022-09-07T01:37:57.621Z,101246.00
2022-09-07T01:40:40.847Z,101247.00
2022-09-07T01:43:15.500Z,101246.00
2022-09-07T01:45:44.897Z,101240.00
2022-09-07T01:48:15.479Z,101234.00
2022-09-07T01:50:53.150Z,101239.00
2022-09-07T01:53:43.695Z,101239.00
2022-09-07T01:56:16.727Z,101237.00
2022-09-07T01:58:56.934Z,101234.00
2022-09-07T02:01:33.493Z,101240.00
2022-09-07T02:04:18.093Z,101241.00
2022-09-07T02:07:00.043Z,101239.00
2022-09-07T02:09:38.568Z,101232.00
2022-09-07T02:12:13.178Z,101231.00
2022-09-07T02:14:43.324Z,101240.00
2022-09-07T02:17:22.403Z,101238.00
2022-09-07T02:19:55.723Z,101233.00
2022-09-07T02:22:29.931Z,101236.00
2022-09-07T02:24:59.715Z,101232.00
2022-09-07T02:27:37.957Z,101233.00
2022-09-07T02:30:04.780Z,101241.00
2022-09-07T02:32:31.217Z,101234.00
2022-09-07T02:34:57.682Z,101240.00
2022-09-07T02:37:27.465Z,101235.00
2022-09-07T02:39:54.567Z,101236.00
2022-09-07T02:42:21.203Z,101226.00
2022-09-07T02:44:48.159Z,101225.00
2022-09-07T02:47:26.623Z,101226.00
2022-09-07T02:50:12.846Z,101220.00
2022-09-07T02:53:13.974Z,101209.00
2022-09-07T02:55:54.209Z,101217.00
2022-09-07T02:58:59.869Z,101218.00
2022-09-07T03:01:47.802Z,101220.00
2022-09-07T03:04:46.381Z,101225.00
2022-09-07T03:07:17.254Z,101219.00
2022-09-07T03:09:49.545Z,101225.00
2022-09-07T03:12:16.659Z,101210.00
2022-09-07T03:14:44.192Z,101213.00
2022-09-07T03:17:11.564Z,101214.00
2022-09-07T03:19:38.263Z,101207.00
2022-09-07T03:22:05.093Z,101213.00
2022-09-07T03:24:31.831Z,101213.00
2022-09-07T03:26:58.844Z,101218.00
2022-09-07T03:29:25.555Z,101219.00
2022-09-07T03:31:52.071Z,101221.00
2022-09-07T03:34:18.671Z,101217.00
2022-09-07T03:36:45.159Z,101209.00
2022-09-07T03:39:12.558Z,101198.00
2022-09-07T03:41:39.015Z,101200.00
2022-09-07T03:44:08.194Z,101191.00
2022-09-07T03:46:35.307Z,101194.00
2022-09-07T03:49:01.768Z,101186.00
2022-09-07T03:51:28.201Z,101190.00
2022-09-07T03:53:54.736Z,101182.00
2022-09-07T03:56:23.135Z,101179.00
2022-09-07T03:58:50.416Z,101170.00
2022-09-07T04:01:24.954Z,101164.00
2022-09-07T04:03:52.365Z,101163.00
2022-09-07T04:06:19.737Z,101161.00
2022-09-07T04:08:46.579Z,101161.00
2022-09-07T04:11:15.930Z,101167.00
2022-09-07T04:13:42.978Z,101165.00
2022-09-07T04:16:23.835Z,101162.00
2022-09-07T04:18:50.712Z,101160.00
2022-09-07T04:21:21.603Z,101161.00
2022-09-07T04:23:49.159Z,101154.00
2022-09-07T04:26:22.875Z,101157.00
2022-09-07T04:28:49.934Z,101153.00
2022-09-07T04:31:17.893Z,101153.00
2022-09-07T04:33:45.642Z,101146.00
2022-09-07T04:36:12.758Z,101157.00
2022-09-07T04:38:42.529Z,101163.00
2022-09-07T04:41:12.792Z,101165.00
2022-09-07T04:43:40.943Z,101151.00
2022-09-07T04:46:35.836Z,101160.00
2022-09-07T04:49:08.295Z,101161.00
2022-09-07T04:51:35.507Z,101162.00
2022-09-07T04:54:02.893Z,101160.00
2022-09-07T04:56:31.813Z,101151.00
2022-09-07T04:58:59.870Z,101160.00
2022-09-07T05:01:26.601Z,101152.00
2022-09-07T05:03:53.691Z,101143.00
2022-09-07T05:06:21.711Z,101144.00
2022-09-07T05:08:53.843Z,101143.00
2022-09-07T05:11:28.433Z,101146.00
2022-09-07T05:14:01.880Z,101147.00
2022-09-07T05:16:29.701Z,101150.00
2022-09-07T05:18:58.750Z,101153.00
2022-09-07T05:21:27.860Z,101149.00
2022-09-07T05:23:56.303Z,101152.00
2022-09-07T05:26:24.384Z,101146.00
2022-09-07T05:28:51.031Z,101152.00
2022-09-07T05:31:20.528Z,101147.00
2022-09-07T05:36:36.395Z,101143.00
2022-09-07T05:39:06.059Z,101135.00
2022-09-07T05:41:32.585Z,101127.00
2022-09-07T05:46:45.686Z,101148.00
2022-09-07T05:49:12.368Z,101155.00
2022-09-07T05:51:38.912Z,101152.00
2022-09-07T05:54:05.758Z,101145.00
2022-09-07T05:56:36.344Z,101142.00
2022-09-07T05:59:03.802Z,101150.00
2022-09-07T06:01:30.574Z,101149.00
2022-09-07T06:03:57.226Z,101147.00
2022-09-07T06:06:23.845Z,101140.00
2022-09-07T06:08:52.476Z,101136.00
2022-09-07T06:11:21.679Z,101117.00
2022-09-07T06:13:48.524Z,100871.00
2022-09-07T06:16:16.500Z,100604.00
2022-09-07T06:18:47.791Z,100534.00
2022-09-07T06:21:16.721Z,100487.00
2022-09-07T06:23:44.151Z,100503.00
2022-09-07T06:26:11.363Z,100494.00
2022-09-07T06:28:50.203Z,100546.00
2022-09-07T06:31:19.552Z,100639.00
2022-09-07T06:33:47.651Z,100738.00
2022-09-07T06:36:27.194Z,100751.00
2022-09-07T06:38:58.890Z,100863.00
2022-09-07T06:44:14.868Z,100875.00
2022-09-07T06:49:28.459Z,101123.00
2022-09-07T06:51:55.128Z,101119.00
2022-09-07T06:57:09.444Z,101123.00
2022-09-07T06:59:36.917Z,101119.00
2022-09-07T07:02:04.178Z,101111.00
2022-09-07T07:04:30.690Z,101115.00
2022-09-07T07:06:57.137Z,101114.00
2022-09-07T07:09:23.629Z,101107.00
2022-09-07T07:11:50.255Z,101117.00
2022-09-07T07:14:17.987Z,101112.00
2022-09-07T07:16:44.793Z,101108.00
2022-09-07T07:19:11.288Z,101109.00
2022-09-07T07:22:03.161Z,101110.00
2022-09-07T07:24:24.325Z,101119.00
2022-09-07T07:26:50.804Z,101101.00
2022-09-07T07:29:18.841Z,101102.00
2022-09-07T07:31:47.152Z,101091.00
2022-09-07T07:34:14.419Z,101095.00
2022-09-07T07:36:40.895Z,101100.00
2022-09-07T07:39:07.386Z,101106.00
2022-09-07T07:44:21.653Z,101124.00
2022-09-07T07:46:50.037Z,101116.00
2022-09-07T07:49:17.158Z,101124.00
2022-09-07T07:54:30.173Z,101127.00
2022-09-07T07:56:56.578Z,101128.00
2022-09-07T07:59:23.217Z,101131.00
2022-09-07T08:01:49.716Z,101126.00
2022-09-07T08:04:16.440Z,101120.00
2022-09-07T08:06:43.151Z,101122.00
2022-09-07T08:09:10.900Z,101110.00
2022-09-07T08:11:40.048Z,101099.00
2022-09-07T08:14:08.605Z,101089.00
2022-09-07T08:16:36.235Z,101100.00
2022-09-07T08:19:03.028Z,101104.00
2022-09-07T08:21:29.928Z,101106.00
2022-09-07T08:23:56.363Z,101111.00
2022-09-07T08:26:22.950Z,101105.00
2022-09-07T08:28:49.378Z,101118.00
2022-09-07T08:31:16.810Z,101118.00
2022-09-07T08:33:43.378Z,101104.00
2022-09-07T08:36:18.455Z,101106.00
2022-09-07T08:38:45.558Z,101107.00
2022-09-07T08:41:46.547Z,101103.00
2022-09-07T08:44:18.743Z,101106.00
2022-09-07T08:47:22.948Z,101102.00
2022-09-07T08:50:10.390Z,101092.00
2022-09-07T08:53:03.785Z,101099.00
2022-09-07T08:55:33.380Z,101099.00
2022-09-07T08:58:27.022Z,101100.00
2022-09-07T09:07:10.002Z,101094.00
2022-09-07T09:09:48.013Z,101083.00
2022-09-07T09:12:37.463Z,101087.00
2022-09-07T09:15:21.596Z,101080.00
2022-09-07T09:18:27.008Z,101082.00
2022-09-07T09:20:58.254Z,101086.00
2022-09-07T09:23:27.979Z,101084.00
2022-09-07T09:25:56.813Z,101085.00
2022-09-07T09:28:25.501Z,101088.00
2022-09-07T09:30:54.939Z,101080.00
2022-09-07T09:33:27.169Z,101083.00
2022-09-07T09:35:57.835Z,101073.00
2022-09-07T09:38:41.291Z,101069.00
2022-09-07T09:41:13.067Z,101071.00
2022-09-07T09:43:51.701Z,101071.00
2022-09-07T09:46:33.399Z,101067.00
2022-09-07T09:49:19.826Z,101072.00
2022-09-07T09:54:42.070Z,101066.00
2022-09-07T09:57:38.654Z,101057.00
2022-09-07T10:00:10.965Z,101061.00
2022-09-07T10:05:34.288Z,101055.00
2022-09-07T10:08:01.284Z,101049.00
2022-09-07T10:10:29.391Z,101050.00
2022-09-07T10:12:56.209Z,101048.00
2022-09-07T10:15:40.901Z,101048.00
2022-09-07T10:18:18.602Z,101037.00
2022-09-07T10:20:45.041Z,101032.00
2022-09-07T10:23:23.757Z,101040.00
2022-09-07T10:25:50.169Z,101044.00
2022-09-07T10:28:20.267Z,101041.00
2022-09-07T10:31:19.457Z,101055.00
2022-09-07T10:37:04.773Z,101062.00
2022-09-07T10:39:37.391Z,101054.00
2022-09-07T10:42:32.762Z,101051.00
2022-09-07T10:45:17.817Z,101051.00
2022-09-07T10:48:05.800Z,101044.00
2022-09-07T10:50:46.986Z,101047.00
2022-09-07T10:53:43.861Z,101046.00
2022-09-07T10:56:41.422Z,101047.00
2022-09-07T11:05:55.365Z,101031.00
2022-09-07T11:09:19.457Z,101027.00
2022-09-07T11:12:05.657Z,101017.00
2022-09-07T11:14:38.911Z,101014.00
2022-09-07T11:17:16.907Z,101018.00
2022-09-07T11:20:25.258Z,101004.00
2022-09-07T11:23:07.679Z,101022.00
2022-09-07T11:25:47.068Z,101019.00
2022-09-07T11:28:23.010Z,101018.00
2022-09-07T11:31:00.029Z,101019.00
2022-09-07T11:33:33.492Z,101024.00
2022-09-07T11:36:09.843Z,101027.00
2022-09-07T11:38:52.115Z,101031.00
2022-09-07T11:41:29.034Z,101023.00
2022-09-07T11:44:01.239Z,101023.00
2022-09-07T11:46:37.426Z,101025.00
2022-09-07T11:49:10.749Z,101022.00
2022-09-07T11:51:53.677Z,101017.00
2022-09-07T11:54:39.226Z,101024.00
2022-09-07T11:57:14.812Z,101037.00
2022-09-07T12:00:10.901Z,101031.00
2022-09-07T12:03:08.418Z,101030.00
2022-09-07T12:05:56.777Z,101027.00
2022-09-07T12:08:51.380Z,101032.00
2022-09-07T12:11:42.602Z,101022.00
2022-09-07T12:14:16.846Z,101019.00
2022-09-07T12:17:43.860Z,101021.00
2022-09-07T12:20:21.546Z,101018.00
2022-09-07T12:23:17.500Z,100999.00
2022-09-07T12:25:46.151Z,101000.00
2022-09-07T12:28:21.834Z,100999.00
2022-09-07T12:31:00.304Z,100992.00
2022-09-07T12:33:28.299Z,100995.00
2022-09-07T12:35:58.157Z,101002.00
2022-09-07T12:38:30.496Z,100995.00
2022-09-07T12:41:20.431Z,100997.00
2022-09-07T12:43:49.652Z,100997.00
2022-09-07T12:46:40.351Z,101001.00
2022-09-07T12:49:26.970Z,100992.00
2022-09-07T12:52:16.190Z,100996.00
2022-09-07T12:55:23.446Z,100990.00
2022-09-07T12:58:14.171Z,100986.00
2022-09-07T13:01:05.554Z,100983.00
2022-09-07T13:03:50.325Z,100982.00
2022-09-07T13:09:31.820Z,100981.00
2022-09-07T13:11:59.668Z,100977.00
2022-09-07T13:14:28.525Z,100962.00
2022-09-07T13:17:41.499Z,100973.00
2022-09-07T13:20:10.715Z,100985.00
2022-09-07T13:22:37.089Z,100977.00
2022-09-07T13:25:20.315Z,100975.00
2022-09-07T13:27:54.283Z,100970.00
2022-09-07T13:30:36.445Z,100942.00
2022-09-07T13:33:24.806Z,100965.00
2022-09-07T13:35:54.233Z,100933.00
2022-09-07T13:38:21.370Z,100957.00
2022-09-07T13:40:52.251Z,100954.00
2022-09-07T13:43:24.394Z,100965.00
2022-09-07T13:45:53.598Z,100959.00
2022-09-07T13:48:36.269Z,100967.00
2022-09-07T13:51:09.588Z,100966.00
2022-09-07T13:54:06.922Z,100973.00
2022-09-07T13:57:08.883Z,100964.00
2022-09-07T13:59:35.350Z,100955.00
2022-09-07T14:02:02.111Z,100962.00
2022-09-07T14:04:39.328Z,100952.00
2022-09-07T14:07:12.172Z,100954.00
2022-09-07T14:09:39.033Z,100952.00
2022-09-07T14:12:16.401Z,100945.00
2022-09-07T14:14:42.951Z,100946.00
2022-09-07T14:17:14.807Z,100944.00
2022-09-07T14:19:45.179Z,100943.00
2022-09-07T14:22:17.574Z,100942.00
2022-09-07T14:24:58.408Z,100938.00
2022-09-07T14:27:44.650Z,100935.00
2022-09-07T14:30:26.261Z,100934.00
2022-09-07T14:32:55.593Z,100937.00
2022-09-07T14:35:25.516Z,100926.00
2022-09-07T14:37:53.242Z,100927.00
2022-09-07T14:40:22.893Z,100938.00
2022-09-07T14:42:50.675Z,100938.00
2022-09-07T14:45:23.255Z,100935.00
2022-09-07T14:47:56.513Z,100931.00
2022-09-07T14:50:25.122Z,100924.00
2022-09-07T14:55:43.044Z,100921.00
2022-09-07T14:58:15.484Z,100907.00
2022-09-07T15:00:46.272Z,100904.00
2022-09-07T15:03:29.637Z,100909.00
2022-09-07T15:06:00.791Z,100917.00
2022-09-07T15:08:38.703Z,100906.00
2022-09-07T15:14:03.463Z,100896.00
2022-09-07T15:16:32.525Z,100898.00
2022-09-07T15:19:02.243Z,100893.00
2022-09-07T15:21:39.645Z,100893.00
2022-09-07T15:24:07.451Z,100895.00
2022-09-07T15:29:28.911Z,100907.00
2022-09-07T15:32:03.361Z,100893.00
2022-09-07T15:34:30.774Z,100899.00
2022-09-07T15:37:00.197Z,100908.00
2022-09-07T15:39:30.199Z,100915.00
2022-09-07T15:41:57.253Z,100915.00
2022-09-07T15:44:26.271Z,100910.00
2022-09-07T15:49:46.036Z,100911.00
2022-09-07T15:52:15.847Z,100919.00
2022-09-07T15:54:43.417Z,100908.00
2022-09-07T15:59:56.731Z,100903.00
2022-09-07T16:05:10.500Z,100902.00
2022-09-07T16:10:24.514Z,100901.00
2022-09-07T16:15:46.067Z,100891.00
2022-09-07T16:18:17.125Z,100890.00
2022-09-07T16:20:44.176Z,100893.00
2022-09-07T16:23:13.686Z,100891.00
2022-09-07T16:25:43.328Z,100886.00
2022-09-07T16:28:10.119Z,100879.00
2022-09-07T16:30:40.401Z,100883.00
2022-09-07T16:33:07.369Z,100882.00
2022-09-07T16:35:35.310Z,100872.00
2022-09-07T16:40:50.107Z,100867.00
2022-09-07T16:43:16.918Z,100861.00
2022-09-07T16:48:31.365Z,100846.00
2022-09-07T16:51:01.946Z,100848.00
2022-09-07T16:53:35.417Z,100846.00
2022-09-07T16:56:07.248Z,100849.00
2022-09-07T16:58:36.505Z,100852.00
2022-09-07T17:01:07.357Z,100848.00
2022-09-07T17:03:34.255Z,100845.00
2022-09-07T17:06:00.964Z,100846.00
2022-09-07T17:08:27.830Z,100845.00
2022-09-07T17:11:02.287Z,100848.00
2022-09-07T17:13:31.149Z,100845.00
2022-09-07T17:16:19.865Z,100849.00
2022-09-07T17:21:35.995Z,100866.00
2022-09-07T17:24:04.491Z,100868.00
2022-09-07T17:26:32.020Z,100867.00
2022-09-07T17:29:00.630Z,100871.00
2022-09-07T17:34:17.115Z,100862.00
2022-09-07T17:36:43.540Z,100858.00
2022-09-07T17:39:18.809Z,100863.00
2022-09-07T17:41:47.627Z,100851.00
2022-09-07T17:44:14.200Z,100855.00
2022-09-07T17:46:40.659Z,100857.00
2022-09-07T17:49:10.223Z,100853.00
2022-09-07T17:51:39.155Z,100836.00
2022-09-07T17:54:11.121Z,100847.00
2022-09-07T17:56:39.941Z,100857.00
2022-09-07T18:01:54.233Z,100858.00
2022-09-07T18:04:21.358Z,100865.00
2022-09-07T18:06:48.279Z,100866.00
2022-09-07T18:09:14.675Z,100865.00
2022-09-07T18:11:45.081Z,100864.00
2022-09-07T18:14:14.671Z,100872.00
2022-09-07T18:16:42.712Z,100877.00
2022-09-07T18:19:11.384Z,100878.00
2022-09-07T18:21:42.268Z,100888.00
2022-09-07T18:24:22.169Z,100895.00
2022-09-07T18:26:52.302Z,100883.00
2022-09-07T18:29:33.435Z,100885.00
2022-09-07T18:32:02.889Z,100887.00
2022-09-07T18:34:30.672Z,100881.00
2022-09-07T18:36:58.248Z,100889.00
2022-09-07T18:39:25.700Z,100893.00
2022-09-07T18:41:53.723Z,100897.00
2022-09-07T18:47:08.683Z,100910.00
2022-09-07T18:49:35.198Z,100909.00
2022-09-07T18:54:48.216Z,100914.00
2022-09-07T18:57:15.475Z,100912.00
2022-09-07T18:59:42.155Z,100919.00
2022-09-07T19:02:10.657Z,100911.00
2022-09-07T19:07:27.477Z,100906.00
2022-09-07T19:09:57.854Z,100904.00
2022-09-07T19:12:26.547Z,100906.00
2022-09-07T19:14:53.291Z,100913.00
2022-09-07T19:17:19.781Z,100912.00
2022-09-07T19:19:47.237Z,100914.00
2022-09-07T19:22:13.676Z,100912.00
2022-09-07T19:24:40.101Z,100909.00
2022-09-07T19:27:07.328Z,100902.00
2022-09-07T19:29:33.997Z,100909.00
2022-09-07T19:32:07.523Z,100907.00
2022-09-07T19:34:39.451Z,100899.00
2022-09-07T19:37:07.439Z,100893.00
2022-09-07T19:39:34.111Z,100896.00
2022-09-07T19:42:02.867Z,100885.00
2022-09-07T19:44:34.708Z,100890.00
2022-09-07T19:47:01.271Z,100901.00
2022-09-07T19:49:28.564Z,100895.00
2022-09-07T19:51:55.003Z,100904.00
2022-09-07T19:54:21.449Z,100892.00
2022-09-07T19:56:47.859Z,100898.00
2022-09-07T19:59:14.526Z,100899.00
2022-09-07T20:01:46.041Z,100891.00
2022-09-07T20:04:19.525Z,100888.00
2022-09-07T20:06:50.071Z,100886.00
2022-09-07T20:09:18.313Z,100877.00
2022-09-07T20:11:47.177Z,100868.00
2022-09-07T20:14:14.804Z,100880.00
2022-09-07T20:16:42.793Z,100872.00
2022-09-07T20:19:11.681Z,100879.00
2022-09-07T20:21:38.158Z,100875.00
2022-09-07T20:24:04.764Z,100879.00
2022-09-07T20:26:32.317Z,100865.00
2022-09-07T20:29:16.833Z,100863.00
2022-09-07T20:31:46.612Z,100851.00
2022-09-07T20:34:13.229Z,100848.00
2022-09-07T20:36:40.102Z,100844.00
2022-09-07T20:39:06.530Z,100833.00
2022-09-07T20:41:34.019Z,100834.00
2022-09-07T20:44:03.659Z,100838.00
2022-09-07T20:46:30.901Z,100843.00
2022-09-07T20:48:57.600Z,100839.00
2022-09-07T20:51:24.423Z,100835.00
2022-09-07T20:53:51.058Z,100833.00
2022-09-07T20:56:22.314Z,100843.00
2022-09-07T20:58:54.028Z,100832.00
2022-09-07T21:01:21.242Z,100838.00
2022-09-07T21:03:51.370Z,100834.00
2022-09-07T21:06:19.247Z,100845.00
2022-09-07T21:08:47.083Z,100844.00
2022-09-07T21:11:19.079Z,100843.00
2022-09-07T21:13:46.611Z,100844.00
2022-09-07T21:16:15.606Z,100843.00
2022-09-07T21:18:44.367Z,100844.00
2022-09-07T21:21:20.483Z,100835.00
2022-09-07T21:23:48.576Z,100829.00
2022-09-07T21:26:15.115Z,100825.00
2022-09-07T21:28:41.788Z,100823.00
2022-09-07T21:31:08.870Z,100823.00
2022-09-07T21:33:36.493Z,100821.00
2022-09-07T21:36:10.437Z,100823.00
2022-09-07T21:38:39.544Z,100824.00
2022-09-07T21:41:13.864Z,100827.00
2022-09-07T21:43:40.824Z,100827.00
2022-09-07T21:46:09.761Z,100825.00
2022-09-07T21:48:36.729Z,100832.00
2022-09-07T21:51:03.799Z,100826.00
2022-09-07T21:53:30.716Z,100823.00
2022-09-07T21:55:58.840Z,100823.00
2022-09-07T21:58:26.503Z,100819.00
2022-09-07T22:00:53.840Z,100817.00
2022-09-07T22:03:21.775Z,100822.00
2022-09-07T22:05:48.253Z,100821.00
2022-09-07T22:08:15.179Z,100820.00
2022-09-07T22:10:42.835Z,100814.00
2022-09-07T22:13:09.894Z,100820.00
2022-09-07T22:15:40.867Z,100811.00
2022-09-07T22:18:10.621Z,100821.00
2022-09-07T22:20:37.021Z,100822.00
2022-09-07T22:23:05.292Z,100822.00
2022-09-07T22:25:32.600Z,100816.00
2022-09-07T22:27:59.382Z,100823.00
2022-09-07T22:30:25.969Z,100822.00
2022-09-07T22:32:52.530Z,100819.00
2022-09-07T22:35:20.299Z,100826.00
2022-09-07T22:37:46.776Z,100819.00
2022-09-07T22:40:14.797Z,100822.00
2022-09-07T22:42:41.665Z,100826.00
2022-09-07T22:45:08.856Z,100827.00
2022-09-07T22:47:35.264Z,100827.00
2022-09-07T22:50:01.683Z,100823.00
2022-09-07T22:52:28.141Z,100818.00
2022-09-07T22:54:54.668Z,100816.00
2022-09-07T22:57:21.082Z,100828.00
2022-09-07T22:59:47.587Z,100815.00
2022-09-07T23:02:14.033Z,100809.00
2022-09-07T23:04:43.650Z,100810.00
2022-09-07T23:07:10.488Z,100810.00
2022-09-07T23:09:37.896Z,100803.00
2022-09-07T23:12:04.477Z,100797.00
2022-09-07T23:14:31.241Z,100797.00
2022-09-07T23:16:57.658Z,100791.00
2022-09-07T23:19:24.071Z,100797.00
2022-09-07T23:21:50.873Z,100788.00
2022-09-07T23:24:18.799Z,100778.00
2022-09-07T23:26:46.714Z,100780.00
2022-09-07T23:29:14.623Z,100777.00
2022-09-07T23:31:41.530Z,100774.00
2022-09-07T23:34:08.186Z,100774.00
2022-09-07T23:36:36.842Z,100784.00
2022-09-07T23:39:03.651Z,100773.00
2022-09-07T23:41:31.377Z,100769.00
2022-09-07T23:43:57.784Z,100762.00
2022-09-07T23:46:24.487Z,100758.00
2022-09-07T23:48:51.081Z,100762.00
2022-09-07T23:51:22.736Z,100760.00
2022-09-07T23:53:50.789Z,100759.00
2022-09-07T23:56:17.210Z,100757.00
2022-09-07T23:58:43.719Z,100753.00
